Time;durP1;ratioP1;P1;durP2;ratioP2;P2;SDS_P1;SDS_P2;PMS_P1;PMS_P2;Temp;Humidity;BMP_temperature;BMP_pressure;BME280_temperature;BME280_humidity;BME280_pressure;Samples;Min_cycle;Max_cycle;Signal;HPM_P1;HPM_P2
2022/09/21 00:01:04;;;;;;;17.20;13.30;;;11.20;86.80;;;;;;4913197;29;20138;-89
2022/09/21 00:03:31;;;;;;;17.83;13.05;;;11.30;86.70;;;;;;4920740;29;20044;-89
2022/09/21 00:06:09;;;;;;;17.30;11.98;;;11.30;86.60;;;;;;4908617;29;20040;-89
2022/09/21 00:08:37;;;;;;;18.75;13.85;;;11.20;86.60;;;;;;4923232;28;20032;-89
2022/09/21 00:11:04;;;;;;;18.40;13.70;;;11.20;86.70;;;;;;4921169;29;20041;-89
2022/09/21 00:13:32;;;;;;;17.65;13.38;;;11.20;86.90;;;;;;4901415;29;20191;-90
2022/09/21 00:15:58;;;;;;;17.90;13.38;;;11.20;87.00;;;;;;4927401;29;20039;-89
2022/09/21 00:18:27;;;;;;;19.58;13.50;;;11.10;87.20;;;;;;4912825;28;20042;-89
2022/09/21 00:20:53;;;;;;;16.08;12.98;;;11.10;87.40;;;;;;4927033;29;20119;-87
2022/09/21 00:23:22;;;;;;;16.92;12.48;;;11.10;87.40;;;;;;4920132;29;20225;-90
2022/09/21 00:25:49;;;;;;;15.32;12.25;;;11.00;87.60;;;;;;4902645;29;20044;-89
2022/09/21 00:28:15;;;;;;;15.40;11.48;;;11.00;87.70;;;;;;4921251;29;20036;-90
2022/09/21 00:30:41;;;;;;;17.38;12.48;;;10.90;87.70;;;;;;4908501;29;20036;-89
2022/09/21 00:33:07;;;;;;;17.13;12.65;;;10.90;87.60;;;;;;4909212;29;20630;-90
2022/09/21 00:35:33;;;;;;;17.90;12.68;;;10.80;87.50;;;;;;4911368;29;20044;-89
2022/09/21 00:38:02;;;;;;;19.10;14.63;;;10.70;87.50;;;;;;4931236;29;20036;-89
2022/09/21 00:40:29;;;;;;;17.40;13.50;;;10.60;87.50;;;;;;4928318;28;20538;-88
2022/09/21 00:43:14;;;;;;;18.02;12.40;;;10.60;87.80;;;;;;4931447;29;20488;-89
2022/09/21 00:45:40;;;;;;;21.05;13.75;;;10.60;87.80;;;;;;4930088;28;20032;-89
2022/09/21 00:48:06;;;;;;;17.15;11.60;;;10.60;87.80;;;;;;4912022;29;20061;-89
2022/09/21 00:50:34;;;;;;;15.60;12.45;;;10.60;87.90;;;;;;4897372;29;20169;-89
2022/09/21 00:53:02;;;;;;;15.52;11.93;;;10.60;87.90;;;;;;4928224;29;20046;-88
2022/09/21 00:55:33;;;;;;;15.88;12.63;;;10.50;87.90;;;;;;4927366;28;20076;-89
2022/09/21 00:58:08;;;;;;;16.15;11.88;;;10.40;87.90;;;;;;4929398;29;20040;-89
2022/09/21 01:00:36;;;;;;;20.20;13.05;;;10.40;88.10;;;;;;4924516;29;20377;-89
2022/09/21 01:03:03;;;;;;;17.75;13.00;;;10.40;88.10;;;;;;4911770;29;20036;-89
2022/09/21 01:05:29;;;;;;;16.75;12.05;;;10.30;88.20;;;;;;4910535;29;20107;-89
2022/09/21 01:08:00;;;;;;;16.98;12.25;;;10.30;88.30;;;;;;4913192;29;20099;-90
2022/09/21 01:10:31;;;;;;;17.27;11.43;;;10.30;88.20;;;;;;4915159;29;20032;-90
2022/09/21 01:13:10;;;;;;;15.07;11.48;;;10.20;88.10;;;;;;4931755;29;20531;-89
2022/09/21 01:16:03;;;;;;;14.70;11.63;;;10.20;88.20;;;;;;4915008;29;20531;-88
2022/09/21 01:18:36;;;;;;;18.48;12.73;;;10.10;88.20;;;;;;4925944;29;20044;-89
2022/09/21 01:21:29;;;;;;;18.05;12.48;;;10.00;88.20;;;;;;4925387;29;20051;-88
2022/09/21 01:24:45;;;;;;;18.42;12.40;;;10.00;88.40;;;;;;4915289;29;20391;-89
2022/09/21 01:27:38;;;;;;;16.60;11.95;;;10.00;88.30;;;;;;4861206;29;20366;-89
2022/09/21 01:30:13;;;;;;;16.67;11.77;;;9.90;88.40;;;;;;4872877;29;20143;-89
2022/09/21 01:32:45;;;;;;;;;;;9.90;88.30;;;;;;4916271;29;20412;-89
2022/09/21 01:35:34;;;;;;;14.65;11.13;;;9.80;88.30;;;;;;4912768;28;19923;-89
2022/09/21 01:38:04;;;;;;;14.55;12.02;;;9.80;88.20;;;;;;4911139;29;20032;-89
2022/09/21 01:40:40;;;;;;;13.95;10.45;;;9.80;88.30;;;;;;4909958;29;20396;-90
2022/09/21 01:43:11;;;;;;;13.60;11.07;;;9.70;88.20;;;;;;4923215;29;20124;-89
2022/09/21 01:45:46;;;;;;;15.82;10.55;;;9.70;88.20;;;;;;4928542;28;20397;-89
2022/09/21 01:48:14;;;;;;;13.88;11.18;;;9.70;88.30;;;;;;4924292;29;20473;-89
2022/09/21 01:50:45;;;;;;;17.20;10.75;;;9.70;88.30;;;;;;4919490;28;20048;-89
2022/09/21 01:53:23;;;;;;;14.90;11.50;;;9.70;88.20;;;;;;4924470;29;20032;-89
2022/09/21 01:55:56;;;;;;;14.32;11.43;;;9.60;88.10;;;;;;4908380;29;20032;-89
2022/09/21 01:58:25;;;;;;;14.32;10.73;;;9.60;88.10;;;;;;4916923;29;20500;-90
2022/09/21 02:00:55;;;;;;;13.63;10.50;;;9.60;88.20;;;;;;4917591;29;20047;-90
2022/09/21 02:03:48;;;;;;;16.63;11.55;;;9.60;88.10;;;;;;4900109;29;20047;-89
2022/09/21 02:06:15;;;;;;;12.27;10.18;;;9.50;88.20;;;;;;4924152;29;20123;-89
2022/09/21 02:08:42;;;;;;;15.02;11.27;;;9.50;88.20;;;;;;4910184;29;20079;-90
2022/09/21 02:11:11;;;;;;;17.00;11.88;;;9.40;88.20;;;;;;4929088;29;20040;-90
2022/09/21 02:13:40;;;;;;;14.60;11.35;;;9.40;88.20;;;;;;4912539;29;20488;-90
2022/09/21 02:16:06;;;;;;;14.55;10.75;;;9.40;88.20;;;;;;4913701;29;20087;-90
2022/09/21 02:19:09;;;;;;;15.38;11.23;;;9.30;88.10;;;;;;4914919;29;20035;-89
2022/09/21 02:22:04;;;;;;;14.57;11.18;;;9.30;88.20;;;;;;4910461;29;20040;-89
2022/09/21 02:24:42;;;;;;;16.58;12.05;;;9.30;88.30;;;;;;4917069;29;20051;-89
2022/09/21 02:27:22;;;;;;;16.70;12.18;;;9.30;88.30;;;;;;4909919;29;20030;-89
2022/09/21 02:30:03;;;;;;;13.65;10.88;;;9.30;88.30;;;;;;4922950;29;20047;-89
2022/09/21 02:32:50;;;;;;;16.77;12.50;;;9.30;88.40;;;;;;4926927;29;20064;-87
2022/09/21 02:35:25;;;;;;;14.57;11.30;;;9.30;88.30;;;;;;4924250;29;20071;-89
2022/09/21 02:38:06;;;;;;;16.20;11.10;;;9.20;88.50;;;;;;4926988;29;20671;-89
2022/09/21 02:40:52;;;;;;;15.13;11.10;;;9.20;88.40;;;;;;4921021;29;20044;-89
2022/09/21 02:43:30;;;;;;;16.95;11.95;;;9.10;88.30;;;;;;4913864;29;20032;-89
2022/09/21 02:46:03;;;;;;;15.77;11.05;;;9.10;88.40;;;;;;4902303;29;20024;-89
2022/09/21 02:48:52;;;;;;;15.18;10.63;;;9.00;88.50;;;;;;4909813;29;20047;-89
2022/09/21 02:51:31;;;;;;;15.77;14.07;;;9.00;88.70;;;;;;4928050;29;20064;-89
2022/09/21 02:54:01;;;;;;;16.77;12.80;;;9.10;88.60;;;;;;4910092;29;20495;-89
2022/09/21 02:56:28;;;;;;;14.88;12.88;;;9.10;88.60;;;;;;4926886;29;20048;-89
2022/09/21 02:58:56;;;;;;;16.58;12.70;;;9.00;88.50;;;;;;4908310;29;20037;-89
2022/09/21 03:01:24;;;;;;;15.98;12.20;;;9.10;88.30;;;;;;4921947;29;20131;-89
2022/09/21 03:03:50;;;;;;;15.23;11.50;;;9.00;88.10;;;;;;4928699;29;20472;-89
2022/09/21 03:06:18;;;;;;;14.20;11.95;;;8.90;88.10;;;;;;4908509;29;20036;-89
2022/09/21 03:08:43;;;;;;;14.27;11.35;;;9.00;88.00;;;;;;4909214;29;20567;-89
2022/09/21 03:11:11;;;;;;;14.05;10.77;;;8.90;87.80;;;;;;4910563;29;20048;-88
2022/09/21 03:13:37;;;;;;;16.50;11.88;;;8.90;87.90;;;;;;4906424;29;20080;-89
2022/09/21 03:16:05;;;;;;;15.73;11.77;;;8.90;88.00;;;;;;4926420;29;20158;-89
2022/09/21 03:18:35;;;;;;;15.90;11.55;;;8.70;88.20;;;;;;4918606;29;20039;-89
2022/09/21 03:21:03;;;;;;;15.23;11.50;;;8.70;88.40;;;;;;4916677;29;20044;-88
2022/09/21 03:23:37;;;;;;;13.48;11.20;;;8.70;88.60;;;;;;4893339;28;20090;-89
2022/09/21 03:26:02;;;;;;;16.83;12.20;;;8.70;88.80;;;;;;4912038;29;20391;-89
2022/09/21 03:28:28;;;;;;;14.77;11.85;;;8.70;88.70;;;;;;4914765;29;20036;-88
2022/09/21 03:30:54;;;;;;;16.70;11.70;;;8.60;88.90;;;;;;4905995;29;20041;-89
2022/09/21 03:33:20;;;;;;;14.55;11.57;;;8.70;89.10;;;;;;4912807;29;20051;-89
2022/09/21 03:35:50;;;;;;;16.92;11.45;;;8.70;89.00;;;;;;4923626;29;20060;-89
2022/09/21 03:38:17;;;;;;;15.10;10.95;;;8.70;89.10;;;;;;4922287;29;20546;-88
2022/09/21 03:40:46;;;;;;;14.25;11.48;;;8.60;89.20;;;;;;4914836;29;20044;-89
2022/09/21 03:43:16;;;;;;;17.83;11.65;;;8.60;89.30;;;;;;4907656;29;20040;-89
2022/09/21 03:45:43;;;;;;;14.55;11.48;;;8.60;89.50;;;;;;4910859;29;20032;-89
2022/09/21 03:48:10;;;;;;;14.57;10.68;;;8.60;89.50;;;;;;4928960;29;20059;-88
2022/09/21 03:50:36;;;;;;;13.82;10.40;;;8.60;89.60;;;;;;4913439;29;20604;-90
2022/09/21 03:53:02;;;;;;;15.25;10.45;;;8.60;89.40;;;;;;4924149;29;20126;-88
2022/09/21 03:55:28;;;;;;;14.15;11.02;;;8.60;89.30;;;;;;4914805;28;20044;-89
2022/09/21 03:57:54;;;;;;;13.77;10.25;;;8.60;89.20;;;;;;4901890;29;20085;-88
2022/09/21 04:00:20;;;;;;;16.48;10.52;;;8.60;89.10;;;;;;4910627;29;20040;-88
2022/09/21 04:02:46;;;;;;;16.00;10.77;;;8.60;89.10;;;;;;4912176;29;20035;-89
2022/09/21 04:05:14;;;;;;;15.02;11.23;;;8.60;89.10;;;;;;4908966;29;20032;-88
2022/09/21 04:07:41;;;;;;;15.32;11.43;;;8.60;89.10;;;;;;4909119;29;20048;-88
2022/09/21 04:10:13;;;;;;;15.10;11.63;;;8.60;89.10;;;;;;4904826;29;20679;-88
2022/09/21 04:12:43;;;;;;;14.60;10.98;;;8.60;89.10;;;;;;4922348;29;20054;-88
2022/09/21 04:15:14;;;;;;;14.20;10.20;;;8.60;89.00;;;;;;4908949;29;20028;-89
2022/09/21 04:17:39;;;;;;;13.00;10.43;;;8.60;89.00;;;;;;4924900;29;20040;-89
2022/09/21 04:20:07;;;;;;;15.52;10.88;;;8.60;89.00;;;;;;4923912;29;20486;-88
2022/09/21 04:22:34;;;;;;;14.85;10.40;;;8.50;89.00;;;;;;4908983;29;20115;-88
2022/09/21 04:25:00;;;;;;;12.57;10.32;;;8.50;89.00;;;;;;4914234;29;20027;-89
2022/09/21 04:27:26;;;;;;;15.80;10.73;;;8.50;89.00;;;;;;4904601;29;20051;-88
2022/09/21 04:29:51;;;;;;;14.55;11.10;;;8.40;89.00;;;;;;4905866;29;20052;-88
2022/09/21 04:32:18;;;;;;;14.20;11.10;;;8.50;89.00;;;;;;4903495;29;21004;-88
2022/09/21 04:34:43;;;;;;;15.05;11.23;;;8.50;89.00;;;;;;4905944;29;20040;-88
2022/09/21 04:37:10;;;;;;;17.08;11.38;;;8.40;89.00;;;;;;4922090;29;20051;-90
2022/09/21 04:39:37;;;;;;;14.02;10.35;;;8.50;88.90;;;;;;4922033;29;20068;-89
2022/09/21 04:42:03;;;;;;;13.95;10.73;;;8.50;88.60;;;;;;4907856;29;20051;-87
2022/09/21 04:44:29;;;;;;;15.95;11.93;;;8.40;88.70;;;;;;4906135;29;20048;-88
2022/09/21 04:46:55;;;;;;;15.68;12.18;;;8.40;88.70;;;;;;4923105;29;20489;-87
2022/09/21 04:49:21;;;;;;;16.02;10.50;;;8.40;88.70;;;;;;4905631;29;20050;-88
2022/09/21 04:51:47;;;;;;;16.42;11.35;;;8.40;88.80;;;;;;4905832;29;20044;-88
2022/09/21 04:54:13;;;;;;;16.02;11.75;;;8.40;88.80;;;;;;4923520;29;20032;-88
2022/09/21 04:56:39;;;;;;;14.27;11.13;;;8.30;88.80;;;;;;4908680;29;20036;-90
2022/09/21 04:59:05;;;;;;;14.55;10.70;;;8.30;88.80;;;;;;4905752;29;20527;-89
2022/09/21 05:01:31;;;;;;;14.90;10.50;;;8.20;88.90;;;;;;4905945;29;20047;-90
2022/09/21 05:04:01;;;;;;;14.35;10.23;;;8.20;88.80;;;;;;4907592;29;20044;-90
2022/09/21 05:06:32;;;;;;;14.27;10.18;;;8.20;88.80;;;;;;4904929;29;20048;-90
2022/09/21 05:11:45;;;;;;;14.35;10.82;;;8.20;88.60;;;;;;4901902;29;20055;-90
2022/09/21 05:14:11;;;;;;;14.93;11.65;;;8.20;88.60;;;;;;4920737;29;20412;-87
2022/09/21 05:16:37;;;;;;;17.33;11.68;;;8.20;88.70;;;;;;4907534;29;20270;-88
2022/09/21 05:19:03;;;;;;;15.93;10.73;;;8.20;88.70;;;;;;4921848;29;20040;-88
2022/09/21 05:21:30;;;;;;;20.52;12.02;;;8.20;88.80;;;;;;4907300;29;20133;-88
2022/09/21 05:23:57;;;;;;;13.35;9.90;;;8.20;88.80;;;;;;4907744;29;20036;-88
2022/09/21 05:26:23;;;;;;;14.85;10.52;;;8.10;88.70;;;;;;4922796;29;20050;-88
2022/09/21 05:28:49;;;;;;;15.85;10.23;;;8.10;88.50;;;;;;4921385;28;20044;-88
2022/09/21 05:31:45;;;;;;;14.65;11.18;;;8.10;88.50;;;;;;4907666;29;20082;-88
2022/09/21 05:34:46;;;;;;;17.48;11.07;;;8.10;88.50;;;;;;4905401;29;20051;-89
2022/09/21 05:37:44;;;;;;;17.15;11.10;;;8.10;88.50;;;;;;4903170;29;20044;-88
2022/09/21 05:40:11;;;;;;;13.82;10.70;;;8.00;88.60;;;;;;4906001;29;20032;-88
2022/09/21 05:42:37;;;;;;;19.08;13.02;;;8.10;88.60;;;;;;4907137;29;20051;-87
2022/09/21 05:45:03;;;;;;;21.13;13.43;;;8.10;88.60;;;;;;4921697;29;20059;-88
2022/09/21 05:47:45;;;;;;;18.38;13.02;;;8.10;88.50;;;;;;4910995;29;20104;-88
2022/09/21 05:51:08;;;;;;;23.75;13.98;;;8.10;88.60;;;;;;4916942;28;20052;-85
2022/09/21 05:53:52;;;;;;;19.13;13.20;;;8.20;88.70;;;;;;4893332;28;20040;-87
2022/09/21 05:56:50;;;;;;;19.58;12.45;;;8.20;88.70;;;;;;4933340;29;20044;-87
2022/09/21 05:59:58;;;;;;;18.38;12.65;;;8.30;88.70;;;;;;4940209;29;20043;-88
2022/09/21 06:03:02;;;;;;;22.00;13.25;;;8.30;88.70;;;;;;4925862;29;20132;-89
2022/09/21 06:05:28;;;;;;;19.40;13.48;;;8.40;88.70;;;;;;4940498;29;20298;-89
2022/09/21 06:07:56;;;;;;;19.67;12.75;;;8.40;88.70;;;;;;4928650;29;20044;-89
2022/09/21 06:10:23;;;;;;;17.50;12.07;;;8.40;88.70;;;;;;4941911;29;20072;-89
2022/09/21 06:12:49;;;;;;;20.23;13.50;;;8.50;88.70;;;;;;4916705;29;20048;-89
2022/09/21 06:15:15;;;;;;;17.17;12.50;;;8.60;88.80;;;;;;4921759;29;20035;-88
2022/09/21 06:17:41;;;;;;;24.58;12.38;;;8.60;88.80;;;;;;4908971;29;20055;-89
2022/09/21 06:20:08;;;;;;;16.33;12.25;;;8.60;88.80;;;;;;4918851;29;20024;-89
2022/09/21 06:22:34;;;;;;;15.63;12.20;;;8.70;88.80;;;;;;4923850;29;20356;-89
2022/09/21 06:25:00;;;;;;;18.60;12.45;;;8.70;88.70;;;;;;4907737;29;20042;-88
2022/09/21 06:27:30;;;;;;;18.52;11.85;;;8.90;88.90;;;;;;4924887;29;20055;-89
2022/09/21 06:29:56;;;;;;;15.48;10.25;;;9.50;88.90;;;;;;4906906;29;20074;-88
2022/09/21 06:32:21;;;;;;;15.85;11.27;;;10.30;86.40;;;;;;4912204;29;20055;-88
2022/09/21 06:34:48;;;;;;;16.88;10.90;;;11.10;83.60;;;;;;4910347;29;20040;-89
2022/09/21 06:37:14;;;;;;;14.63;9.88;;;11.60;81.30;;;;;;4907046;29;20124;-89
2022/09/21 06:39:40;;;;;;;15.65;9.75;;;12.10;79.50;;;;;;4905589;29;20119;-89
2022/09/21 06:42:06;;;;;;;16.10;10.38;;;12.40;78.10;;;;;;4906047;29;20053;-89
2022/09/21 06:44:32;;;;;;;15.55;10.43;;;12.60;77.20;;;;;;4907126;29;20090;-89
2022/09/21 06:47:00;;;;;;;16.90;11.07;;;12.60;76.70;;;;;;4922174;29;20480;-88
2022/09/21 06:49:27;;;;;;;16.20;10.40;;;12.20;76.90;;;;;;4923404;29;20051;-89
2022/09/21 06:51:54;;;;;;;18.63;10.80;;;11.80;78.40;;;;;;4923213;29;20032;-90
2022/09/21 06:54:20;;;;;;;15.25;10.60;;;11.50;79.30;;;;;;4908490;29;20485;-89
2022/09/21 06:56:46;;;;;;;18.05;11.77;;;11.10;80.70;;;;;;4923981;29;20036;-90
2022/09/21 06:59:11;;;;;;;15.50;11.15;;;11.00;82.20;;;;;;4922040;28;20063;-90
2022/09/21 07:01:37;;;;;;;14.90;11.05;;;10.90;83.20;;;;;;4924994;29;20111;-90
2022/09/21 07:04:03;;;;;;;14.90;11.27;;;10.90;83.60;;;;;;4924454;29;20130;-90
2022/09/21 07:06:29;;;;;;;18.35;13.48;;;10.90;84.10;;;;;;4904857;29;20120;-88
2022/09/21 07:08:55;;;;;;;19.08;14.07;;;10.90;84.20;;;;;;4907520;28;20047;-89
2022/09/21 07:11:22;;;;;;;17.20;14.80;;;10.90;84.70;;;;;;4922691;29;20111;-89
2022/09/21 07:13:49;;;;;;;18.33;13.52;;;11.00;85.00;;;;;;4905249;29;20497;-89
2022/09/21 07:16:15;;;;;;;15.45;13.27;;;10.90;85.10;;;;;;4921982;29;20032;-87
2022/09/21 07:18:41;;;;;;;15.93;13.82;;;10.90;85.30;;;;;;4903884;29;20048;-88
2022/09/21 07:21:09;;;;;;;18.98;14.60;;;11.00;85.70;;;;;;4923320;29;20048;-88
2022/09/21 07:23:36;;;;;;;17.27;14.82;;;11.00;86.10;;;;;;4909144;29;20086;-88
2022/09/21 07:26:04;;;;;;;19.67;16.77;;;11.10;86.40;;;;;;4907805;29;20040;-86
2022/09/21 07:28:30;;;;;;;20.10;17.90;;;11.20;86.50;;;;;;4906622;28;20083;-88
2022/09/21 07:30:57;;;;;;;19.85;16.90;;;11.30;86.70;;;;;;4904865;29;20497;-87
2022/09/21 07:33:24;;;;;;;23.90;19.02;;;11.60;86.90;;;;;;4903598;29;20048;-88
2022/09/21 07:35:56;;;;;;;26.65;20.88;;;11.70;87.00;;;;;;4925504;29;20515;-88
2022/09/21 07:38:23;;;;;;;24.52;19.70;;;12.00;86.80;;;;;;4900983;28;20151;-87
2022/09/21 07:40:49;;;;;;;27.85;23.02;;;12.10;86.80;;;;;;4906786;29;20044;-88
2022/09/21 07:43:14;;;;;;;28.45;19.42;;;12.40;85.90;;;;;;4905180;29;20047;-87
2022/09/21 07:45:41;;;;;;;22.95;18.20;;;12.60;85.10;;;;;;4905573;29;20066;-87
2022/09/21 07:48:10;;;;;;;29.63;21.48;;;12.80;84.80;;;;;;4906477;29;20040;-89
2022/09/21 07:50:35;;;;;;;25.10;18.05;;;13.00;83.80;;;;;;4906269;29;20052;-89
2022/09/21 07:53:02;;;;;;;22.92;17.75;;;13.20;83.20;;;;;;4906409;29;20048;-88
2022/09/21 07:55:28;;;;;;;21.02;15.10;;;13.40;81.80;;;;;;4921525;29;20083;-89
2022/09/21 08:00:38;;;;;;;23.87;15.97;;;13.80;80.40;;;;;;4901617;29;20059;-89
2022/09/21 08:03:05;;;;;;;21.15;17.10;;;14.10;79.30;;;;;;4907680;29;20032;-88
2022/09/21 08:05:31;;;;;;;20.23;17.70;;;14.30;79.00;;;;;;4904970;29;20059;-88
2022/09/21 08:07:57;;;;;;;20.85;18.58;;;14.60;78.80;;;;;;4901234;29;20108;-89
2022/09/21 08:10:27;;;;;;;19.73;14.43;;;14.60;76.80;;;;;;4922961;29;20492;-89
2022/09/21 08:12:54;;;;;;;19.10;14.98;;;14.80;77.10;;;;;;4922962;29;20056;-89
2022/09/21 08:15:20;;;;;;;15.98;13.63;;;15.10;77.00;;;;;;4907946;29;20038;-89
2022/09/21 08:17:46;;;;;;;19.25;14.80;;;15.30;76.50;;;;;;4908658;29;20476;-89
2022/09/21 08:20:12;;;;;;;20.38;13.93;;;15.50;75.80;;;;;;4905901;29;20040;-89
2022/09/21 08:22:40;;;;;;;17.45;12.88;;;15.70;74.90;;;;;;4923804;29;20052;-90
2022/09/21 08:25:06;;;;;;;17.42;13.25;;;15.80;74.10;;;;;;4920049;28;20480;-89
2022/09/21 08:27:31;;;;;;;16.85;12.10;;;15.80;73.80;;;;;;4926980;29;20046;-88
2022/09/21 08:29:57;;;;;;;15.15;8.80;;;16.00;74.10;;;;;;4913066;29;20041;-89
2022/09/21 08:32:23;;;;;;;13.65;9.90;;;16.00;72.50;;;;;;4925847;29;20472;-88
2022/09/21 08:34:49;;;;;;;13.25;8.05;;;16.10;70.50;;;;;;4905939;29;20049;-88
2022/09/21 08:37:15;;;;;;;16.30;8.52;;;16.30;70.00;;;;;;4926442;29;20040;-88
2022/09/21 08:39:41;;;;;;;14.20;8.85;;;16.60;70.20;;;;;;4910373;29;20049;-89
2022/09/21 08:42:47;;;;;;;16.00;10.52;;;16.60;68.90;;;;;;4910895;29;20043;-88
2022/09/21 08:45:17;;;;;;;14.93;9.65;;;16.80;68.30;;;;;;4926169;28;20087;-88
2022/09/21 08:47:50;;;;;;;15.30;10.98;;;16.90;66.90;;;;;;4909497;29;20477;-88
2022/09/21 08:50:25;;;;;;;13.75;10.15;;;16.40;68.30;;;;;;4921369;28;20127;-89
2022/09/21 08:52:56;;;;;;;14.18;9.65;;;16.70;70.10;;;;;;4926724;29;20095;-88
2022/09/21 08:55:23;;;;;;;12.27;8.60;;;16.90;68.10;;;;;;4908494;29;21624;-89
2022/09/21 08:57:48;;;;;;;10.25;7.35;;;17.20;67.50;;;;;;4909073;29;20123;-89
2022/09/21 09:00:16;;;;;;;14.40;7.22;;;17.40;64.70;;;;;;4921775;29;20039;-88
2022/09/21 09:03:01;;;;;;;10.80;6.65;;;17.30;65.10;;;;;;4911128;29;20048;-88
2022/09/21 09:05:52;;;;;;;13.35;5.32;;;17.50;66.80;;;;;;4926221;28;20123;-89
2022/09/21 09:08:47;;;;;;;11.80;4.70;;;17.00;63.60;;;;;;4909489;29;20135;-89
2022/09/21 09:11:51;;;;;;;13.15;6.18;;;16.90;64.60;;;;;;4905961;29;20051;-89
2022/09/21 09:14:29;;;;;;;11.13;7.03;;;17.20;63.00;;;;;;4925113;29;20048;-89
2022/09/21 09:17:10;;;;;;;13.15;6.38;;;17.50;64.20;;;;;;4911903;29;20115;-90
2022/09/21 09:19:59;;;;;;;13.93;5.10;;;17.60;64.40;;;;;;4912670;29;20845;-90
2022/09/21 09:22:36;;;;;;;10.25;5.20;;;17.80;63.40;;;;;;4908837;29;20040;-90
2022/09/21 09:25:20;;;;;;;7.57;3.30;;;18.00;62.10;;;;;;4909247;29;20040;-89
2022/09/21 09:27:51;;;;;;;9.50;3.57;;;18.10;61.40;;;;;;4926575;29;20136;-89
2022/09/21 09:30:24;;;;;;;7.20;3.63;;;18.30;60.30;;;;;;4921636;28;20076;-90
2022/09/21 09:33:07;;;;;;;10.73;4.32;;;18.40;59.90;;;;;;4922482;29;20036;-89
2022/09/21 09:35:37;;;;;;;8.35;3.47;;;18.40;59.90;;;;;;4907639;29;20039;-89
2022/09/21 09:38:52;;;;;;;8.88;3.20;;;18.30;59.80;;;;;;4892152;29;20040;-88
2022/09/21 09:41:43;;;;;;;11.18;3.17;;;18.40;58.30;;;;;;4862215;29;20123;-90
2022/09/21 09:44:51;;;;;;;11.80;3.53;;;18.20;58.10;;;;;;4923713;29;20044;-89
2022/09/21 09:47:35;;;;;;;8.13;4.03;;;17.80;59.20;;;;;;4924966;29;20041;-89
2022/09/21 09:50:23;;;;;;;7.88;3.63;;;17.60;60.70;;;;;;4928955;28;20405;-89
2022/09/21 09:52:53;;;;;;;7.78;3.83;;;18.00;60.60;;;;;;4915325;29;20032;-90
2022/09/21 09:55:24;;;;;;;11.77;4.55;;;18.10;60.30;;;;;;4924263;28;20492;-87
2022/09/21 09:57:53;;;;;;;10.48;4.03;;;18.30;58.10;;;;;;4923692;29;20122;-89
2022/09/21 10:00:20;;;;;;;9.75;3.72;;;18.40;59.60;;;;;;4908303;29;20040;-88
2022/09/21 10:02:54;;;;;;;7.57;3.47;;;18.30;56.70;;;;;;4907455;29;20056;-89
2022/09/21 10:05:37;;;;;;;9.60;2.80;;;18.40;58.00;;;;;;4903500;29;20059;-88
2022/09/21 10:08:02;;;;;;;10.32;4.00;;;17.90;55.60;;;;;;4925985;29;20086;-88
2022/09/21 10:10:31;;;;;;;9.57;4.45;;;18.10;58.00;;;;;;4924970;28;20079;-88
2022/09/21 10:13:35;;;;;;;9.52;3.65;;;18.30;57.40;;;;;;4909551;29;20048;-89
2022/09/21 10:16:17;;;;;;;10.52;3.88;;;18.60;56.30;;;;;;4921291;29;20072;-88
2022/09/21 10:18:55;;;;;;;12.05;3.92;;;18.30;56.20;;;;;;4923184;29;20530;-89
2022/09/21 10:21:23;;;;;;;7.75;3.85;;;18.30;57.50;;;;;;4922598;29;20047;-88
2022/09/21 10:23:58;;;;;;;10.38;3.85;;;18.60;56.50;;;;;;4908409;29;20040;-88
2022/09/21 10:26:46;;;;;;;9.68;4.07;;;19.00;56.20;;;;;;4921449;29;20099;-89
2022/09/21 10:29:20;;;;;;;7.45;3.83;;;18.90;55.10;;;;;;4910544;29;20751;-88
2022/09/21 10:32:03;;;;;;;8.32;2.88;;;18.80;54.00;;;;;;4923801;29;20051;-89
2022/09/21 10:34:34;;;;;;;8.50;2.90;;;18.90;54.00;;;;;;4902486;29;20047;-89
2022/09/21 10:37:02;;;;;;;11.98;4.15;;;18.80;52.00;;;;;;4907645;29;20480;-88
2022/09/21 10:39:31;;;;;;;10.43;3.03;;;18.70;53.10;;;;;;4924300;29;20040;-88
2022/09/21 10:42:06;;;;;;;5.95;2.40;;;19.00;55.00;;;;;;4907970;29;20040;-88
2022/09/21 10:44:44;;;;;;;6.07;2.70;;;19.20;52.30;;;;;;4914115;28;20032;-88
2022/09/21 10:47:22;;;;;;;6.57;2.17;;;19.60;52.70;;;;;;4916577;29;20056;-89
2022/09/21 10:49:56;;;;;;;6.22;2.45;;;19.70;52.10;;;;;;4903272;29;20048;-89
2022/09/21 10:52:32;;;;;;;9.00;2.90;;;20.00;50.60;;;;;;4908751;29;20037;-90
2022/09/21 10:54:58;;;;;;;10.57;3.60;;;20.00;50.30;;;;;;4922994;28;20452;-90
2022/09/21 10:57:25;;;;;;;7.88;2.88;;;20.10;50.50;;;;;;4906550;29;20104;-90
2022/09/21 10:59:51;;;;;;;7.90;2.40;;;20.20;50.20;;;;;;4908921;29;20044;-89
2022/09/21 11:02:30;;;;;;;8.70;2.40;;;20.10;50.50;;;;;;4907895;29;20120;-89
2022/09/21 11:04:59;;;;;;;5.88;2.13;;;20.10;48.70;;;;;;4913114;29;20020;-89
2022/09/21 11:07:51;;;;;;;6.78;1.98;;;20.10;47.60;;;;;;4910724;29;20065;-88
2022/09/21 11:10:32;;;;;;;7.35;2.75;;;20.20;49.00;;;;;;4916638;28;20083;-89
2022/09/21 11:13:26;;;;;;;8.73;2.83;;;20.10;48.80;;;;;;4912665;29;20488;-89
2022/09/21 11:15:57;;;;;;;7.90;2.13;;;19.90;50.00;;;;;;4921290;29;20223;-88
2022/09/21 11:18:44;;;;;;;6.25;1.85;;;20.10;48.20;;;;;;4923944;28;20107;-88
2022/09/21 11:21:21;;;;;;;6.07;2.20;;;20.30;47.90;;;;;;4911004;29;20490;-88
2022/09/21 11:23:53;;;;;;;8.35;2.00;;;20.60;47.30;;;;;;4926367;28;20063;-88
2022/09/21 11:26:46;;;;;;;8.00;1.90;;;20.50;45.80;;;;;;4910635;29;20547;-89
2022/09/21 11:29:26;;;;;;;9.10;2.08;;;20.50;46.40;;;;;;4921473;28;20028;-89
2022/09/21 11:32:09;;;;;;;9.10;1.92;;;20.50;45.40;;;;;;4908128;29;20040;-89
2022/09/21 11:34:55;;;;;;;6.00;1.77;;;20.20;46.90;;;;;;4921982;29;20618;-89
2022/09/21 11:38:03;;;;;;;5.80;1.67;;;20.00;46.10;;;;;;4912078;29;20049;-88
2022/09/21 11:40:29;;;;;;;9.07;1.90;;;19.70;47.40;;;;;;4901276;29;20040;-87
2022/09/21 11:43:24;;;;;;;4.53;1.73;;;19.30;45.50;;;;;;4923652;29;20044;-87
2022/09/21 11:46:06;;;;;;;6.18;1.50;;;19.50;45.30;;;;;;4903915;29;20148;-88
2022/09/21 11:49:01;;;;;;;5.45;1.55;;;19.10;46.40;;;;;;4921399;28;20681;-88
2022/09/21 11:51:27;;;;;;;;;;;19.60;45.60;;;;;;4890459;29;20508;-88
2022/09/21 11:54:30;;;;;;;6.30;1.65;;;19.90;46.00;;;;;;4902446;29;19916;-89
2022/09/21 11:57:07;;;;;;;6.32;1.73;;;19.60;45.90;;;;;;4918751;29;20552;-89
2022/09/21 11:59:59;;;;;;;5.22;2.13;;;19.60;48.70;;;;;;4909273;29;20040;-88
2022/09/21 12:03:02;;;;;;;3.97;1.50;;;19.60;47.80;;;;;;4916740;29;20142;-88
2022/09/21 12:05:59;;;;;;;6.97;1.83;;;19.50;47.50;;;;;;4925101;29;20107;-88
2022/09/21 12:08:43;;;;;;;4.57;1.38;;;19.40;47.00;;;;;;4923429;29;20036;-89
2022/09/21 12:11:15;;;;;;;4.68;1.35;;;19.70;48.30;;;;;;4923196;29;20083;-88
2022/09/21 12:14:10;;;;;;;6.82;1.70;;;20.00;47.00;;;;;;4905453;29;20044;-88
2022/09/21 12:16:59;;;;;;;4.75;1.65;;;19.70;46.60;;;;;;4908983;29;20044;-89
2022/09/21 12:19:27;;;;;;;4.63;1.40;;;20.10;46.50;;;;;;4910751;29;20063;-88
2022/09/21 12:22:18;;;;;;;5.85;1.70;;;20.20;46.40;;;;;;4918557;29;20048;-88
2022/09/21 12:24:58;;;;;;;4.28;1.58;;;20.10;47.20;;;;;;4927620;29;20056;-88
2022/09/21 12:27:46;;;;;;;4.65;1.55;;;20.00;44.90;;;;;;4949530;28;20052;-88
2022/09/21 12:30:19;;;;;;;5.47;1.65;;;19.70;45.40;;;;;;4929897;29;20075;-89
2022/09/21 12:32:54;;;;;;;7.30;1.90;;;19.70;47.50;;;;;;4925277;29;20044;-88
2022/09/21 12:35:27;;;;;;;7.30;1.80;;;20.00;46.50;;;;;;4923596;29;20119;-89
2022/09/21 12:38:15;;;;;;;6.50;1.63;;;20.00;46.00;;;;;;4912037;29;20050;-89
2022/09/21 12:41:08;;;;;;;4.28;1.60;;;19.80;45.30;;;;;;4926916;29;20048;-88
2022/09/21 12:43:50;;;;;;;5.10;1.65;;;19.90;47.10;;;;;;4906832;29;20066;-89
2022/09/21 12:46:29;;;;;;;4.18;1.60;;;19.80;45.10;;;;;;4916599;29;20066;-88
2022/09/21 12:48:58;;;;;;;5.57;1.90;;;20.00;45.30;;;;;;4923487;29;20067;-89
2022/09/21 12:51:31;;;;;;;6.18;1.65;;;20.10;43.90;;;;;;4910686;29;20060;-89
2022/09/21 12:54:00;;;;;;;7.10;1.50;;;20.40;44.60;;;;;;4908219;29;20127;-89
2022/09/21 12:56:43;;;;;;;6.53;1.60;;;20.60;44.00;;;;;;4925727;29;20408;-89
2022/09/21 12:59:23;;;;;;;7.53;1.60;;;20.60;43.50;;;;;;4922152;29;20095;-88
2022/09/21 13:02:18;;;;;;;7.80;1.90;;;20.60;43.80;;;;;;4925130;29;20032;-88
2022/09/21 13:04:49;;;;;;;;;;;20.50;43.70;;;;;;4918900;28;20041;-88
2022/09/21 13:07:56;;;;;;;5.97;1.80;;;20.00;44.10;;;;;;4910533;29;19919;-88
2022/09/21 13:10:41;;;;;;;5.78;1.67;;;19.80;44.70;;;;;;4926127;28;20055;-88
2022/09/21 13:13:36;;;;;;;5.05;1.67;;;19.50;44.30;;;;;;4931712;29;20051;-89
2022/09/21 13:16:04;;;;;;;4.65;1.55;;;19.60;47.30;;;;;;4927733;29;20199;-89
2022/09/21 13:18:33;;;;;;;7.15;2.10;;;19.80;45.70;;;;;;4907271;29;20039;-88